createdAt,value
2023-01-18T00:01:56.685Z,7.40
2023-01-18T00:04:26.738Z,8.20
2023-01-18T00:07:03.134Z,8.43
2023-01-18T00:09:31.598Z,7.93
2023-01-18T00:12:07.616Z,9.23
2023-01-18T00:14:40.459Z,8.70
2023-01-18T00:17:08.324Z,10.10
2023-01-18T00:19:40.967Z,9.27
2023-01-18T00:22:12.486Z,9.40
2023-01-18T00:24:43.062Z,9.60
2023-01-18T00:27:16.513Z,9.83
2023-01-18T00:29:48.628Z,9.37
2023-01-18T00:32:19.852Z,9.60
2023-01-18T00:34:58.738Z,10.10
2023-01-18T00:37:29.626Z,10.27
2023-01-18T00:40:03.756Z,10.40
2023-01-18T00:42:52.056Z,9.90
2023-01-18T00:45:19.990Z,9.90
2023-01-18T00:47:54.929Z,11.50
2023-01-18T00:50:29.106Z,9.37
2023-01-18T00:53:02.415Z,9.00
2023-01-18T00:55:30.505Z,9.50
2023-01-18T00:58:02.776Z,10.20
2023-01-18T01:00:46.971Z,9.70
2023-01-18T01:03:22.342Z,9.50
2023-01-18T01:06:08.239Z,10.00
2023-01-18T01:08:37.499Z,10.03
2023-01-18T01:11:17.951Z,9.93
2023-01-18T01:14:04.791Z,9.33
2023-01-18T01:16:51.378Z,8.93
2023-01-18T01:19:39.081Z,9.93
2023-01-18T01:22:26.318Z,8.90
2023-01-18T01:25:16.059Z,9.37
2023-01-18T01:27:47.300Z,9.50
2023-01-18T01:30:17.767Z,9.60
2023-01-18T01:32:52.697Z,9.83
2023-01-18T01:35:23.392Z,9.13
2023-01-18T01:37:57.100Z,9.40
2023-01-18T01:40:30.991Z,9.33
2023-01-18T01:43:01.448Z,9.40
2023-01-18T01:45:34.410Z,10.27
2023-01-18T01:48:02.346Z,10.10
2023-01-18T01:50:38.306Z,9.97
2023-01-18T01:53:09.323Z,10.23
2023-01-18T01:55:41.138Z,9.50
2023-01-18T01:58:12.478Z,9.60
2023-01-18T02:00:40.781Z,8.80
2023-01-18T02:03:12.509Z,10.00
2023-01-18T02:05:47.748Z,10.87
2023-01-18T02:08:24.895Z,9.63
2023-01-18T02:10:55.679Z,9.87
2023-01-18T02:13:28.171Z,10.33
2023-01-18T02:16:05.946Z,9.73
2023-01-18T02:18:41.601Z,9.50
2023-01-18T02:21:16.805Z,9.60
2023-01-18T02:24:23.165Z,10.47
2023-01-18T02:27:00.672Z,10.03
2023-01-18T02:30:01.100Z,11.27
2023-01-18T02:32:45.303Z,10.80
2023-01-18T02:35:26.562Z,10.30
2023-01-18T02:38:08.299Z,10.70
2023-01-18T02:40:46.364Z,10.57
2023-01-18T02:43:35.708Z,11.90
2023-01-18T02:46:27.757Z,9.80
2023-01-18T02:48:58.037Z,10.03
2023-01-18T02:51:29.325Z,11.40
2023-01-18T02:54:01.920Z,10.47
2023-01-18T02:56:35.110Z,11.60
2023-01-18T02:59:10.260Z,11.57
2023-01-18T03:01:44.213Z,10.70
2023-01-18T03:04:21.762Z,11.40
2023-01-18T03:07:00.197Z,10.57
2023-01-18T03:09:40.712Z,11.10
2023-01-18T03:12:25.405Z,11.27
2023-01-18T03:15:08.437Z,11.27
2023-01-18T03:17:41.093Z,11.57
2023-01-18T03:20:15.050Z,12.10
2023-01-18T03:23:06.925Z,12.03
2023-01-18T03:25:37.807Z,11.60
2023-01-18T03:28:25.529Z,10.97
2023-01-18T03:31:14.591Z,10.93
2023-01-18T03:33:47.135Z,12.17
2023-01-18T03:36:25.313Z,12.33
2023-01-18T03:38:58.969Z,12.37
2023-01-18T03:41:39.998Z,11.80
2023-01-18T03:44:12.780Z,11.03
2023-01-18T03:46:46.459Z,11.73
2023-01-18T03:49:26.619Z,11.87
2023-01-18T03:52:17.115Z,12.07
2023-01-18T03:54:54.628Z,12.00
2023-01-18T03:57:28.045Z,11.93
2023-01-18T03:59:56.189Z,11.43
2023-01-18T04:02:32.433Z,11.77
2023-01-18T04:05:05.023Z,11.93
2023-01-18T04:07:40.565Z,11.57
2023-01-18T04:10:09.375Z,12.00
2023-01-18T04:12:38.931Z,11.90
2023-01-18T04:15:12.710Z,11.73
2023-01-18T04:17:47.650Z,12.40
2023-01-18T04:20:17.357Z,11.90
2023-01-18T04:22:52.737Z,11.10
2023-01-18T04:25:21.286Z,11.40
2023-01-18T04:27:49.152Z,11.80
2023-01-18T04:30:21.778Z,12.40
2023-01-18T04:32:56.544Z,11.70
2023-01-18T04:35:27.485Z,11.80
2023-01-18T04:38:01.002Z,12.30
2023-01-18T04:40:37.627Z,10.70
2023-01-18T04:43:11.344Z,12.30
2023-01-18T04:45:40.917Z,12.10
2023-01-18T04:48:14.263Z,11.73
2023-01-18T04:50:49.478Z,12.57
2023-01-18T04:53:19.506Z,12.23
2023-01-18T04:55:49.634Z,12.10
2023-01-18T04:58:21.924Z,12.80
2023-01-18T05:00:55.084Z,15.53
2023-01-18T05:03:30.827Z,13.50
2023-01-18T05:06:05.611Z,13.00
2023-01-18T05:08:40.795Z,12.70
2023-01-18T05:11:10.505Z,12.77
2023-01-18T05:13:44.268Z,14.20
2023-01-18T05:16:20.290Z,12.77
2023-01-18T05:18:50.643Z,12.57
2023-01-18T05:21:18.647Z,13.27
2023-01-18T05:23:47.889Z,14.30
2023-01-18T05:26:23.522Z,13.30
2023-01-18T05:28:58.147Z,14.17
2023-01-18T05:31:34.050Z,13.93
2023-01-18T05:34:05.913Z,13.33
2023-01-18T05:36:33.884Z,13.73
2023-01-18T05:39:05.714Z,14.30
2023-01-18T05:41:39.561Z,14.07
2023-01-18T05:44:07.441Z,14.30
2023-01-18T05:46:35.300Z,14.43
2023-01-18T05:49:08.890Z,13.83
2023-01-18T05:51:38.937Z,13.53
2023-01-18T05:54:09.813Z,14.20
2023-01-18T05:56:37.862Z,14.37
2023-01-18T05:59:08.596Z,14.37
2023-01-18T06:01:36.557Z,13.03
2023-01-18T06:04:06.063Z,14.87
2023-01-18T06:06:37.977Z,14.70
2023-01-18T06:09:14.037Z,14.07
2023-01-18T06:11:50.640Z,14.13
2023-01-18T06:14:18.578Z,13.70
2023-01-18T06:16:49.829Z,13.30
2023-01-18T06:19:22.369Z,14.93
2023-01-18T06:21:54.631Z,13.90
2023-01-18T06:24:26.639Z,14.30
2023-01-18T06:26:56.656Z,13.60
2023-01-18T06:29:26.709Z,13.20
2023-01-18T06:31:56.033Z,13.30
2023-01-18T06:34:30.490Z,12.90
2023-01-18T06:37:00.108Z,14.07
2023-01-18T06:39:36.030Z,13.60
2023-01-18T06:42:08.473Z,13.30
2023-01-18T06:44:36.386Z,11.90
2023-01-18T06:47:06.725Z,12.67
2023-01-18T06:49:38.412Z,13.20
2023-01-18T06:52:15.120Z,12.27
2023-01-18T06:54:44.736Z,13.20
2023-01-18T06:57:18.136Z,15.20
2023-01-18T06:59:46.137Z,14.27
2023-01-18T07:02:18.659Z,14.43
2023-01-18T07:04:46.563Z,13.80
2023-01-18T07:07:21.930Z,13.43
2023-01-18T07:09:51.308Z,14.13
2023-01-18T07:12:26.875Z,12.40
2023-01-18T07:14:54.830Z,14.60
2023-01-18T07:17:30.586Z,14.17
2023-01-18T07:20:00.517Z,13.30
2023-01-18T07:22:31.755Z,14.40
2023-01-18T07:25:05.327Z,14.03
2023-01-18T07:27:35.178Z,14.20
2023-01-18T07:30:09.153Z,14.00
2023-01-18T07:32:38.724Z,16.10
2023-01-18T07:35:07.337Z,14.53
2023-01-18T07:37:35.953Z,14.40
2023-01-18T07:40:19.286Z,14.07
2023-01-18T07:42:47.181Z,15.40
2023-01-18T07:45:16.527Z,15.47
2023-01-18T07:47:48.754Z,15.10
2023-01-18T07:50:17.342Z,14.80
2023-01-18T07:52:45.245Z,14.20
2023-01-18T07:55:19.203Z,14.10
2023-01-18T07:57:50.694Z,15.53
2023-01-18T08:00:20.883Z,15.30
2023-01-18T08:02:53.488Z,16.70
2023-01-18T08:05:27.986Z,14.27
2023-01-18T08:07:56.088Z,14.17
2023-01-18T08:10:26.557Z,14.93
2023-01-18T08:13:09.511Z,16.20
2023-01-18T08:15:39.785Z,15.70
2023-01-18T08:18:10.637Z,16.67
2023-01-18T08:20:38.690Z,16.80
2023-01-18T08:23:09.321Z,14.77
2023-01-18T08:25:41.211Z,15.30
2023-01-18T08:28:09.872Z,14.47
2023-01-18T08:30:42.906Z,14.60
2023-01-18T08:33:11.230Z,13.17
2023-01-18T08:35:48.672Z,14.43
2023-01-18T08:38:25.478Z,15.03
2023-01-18T08:40:57.779Z,15.03
2023-01-18T08:43:27.299Z,15.40
2023-01-18T08:46:09.821Z,14.80
2023-01-18T08:48:45.870Z,14.77
2023-01-18T08:51:18.061Z,14.03
2023-01-18T08:53:53.386Z,14.60
2023-01-18T08:56:22.682Z,15.00
2023-01-18T08:58:52.932Z,16.47
2023-01-18T09:01:23.479Z,15.90
2023-01-18T09:03:58.598Z,16.03
2023-01-18T09:06:32.196Z,16.10
2023-01-18T09:09:03.436Z,16.67
2023-01-18T09:11:34.336Z,16.90
2023-01-18T09:14:03.649Z,16.17
2023-01-18T09:16:38.962Z,15.97
2023-01-18T09:19:09.206Z,15.60
2023-01-18T09:21:40.736Z,15.73
2023-01-18T09:24:14.041Z,16.50
2023-01-18T09:26:50.990Z,15.80
2023-01-18T09:29:22.960Z,16.20
2023-01-18T09:31:55.913Z,15.57
2023-01-18T09:34:29.104Z,16.90
2023-01-18T09:37:03.331Z,15.63
2023-01-18T09:39:50.464Z,15.97
2023-01-18T09:42:26.056Z,16.10
2023-01-18T09:45:07.063Z,17.17
2023-01-18T09:47:44.233Z,15.60
2023-01-18T09:50:24.072Z,16.93
2023-01-18T09:53:00.158Z,15.60
2023-01-18T09:55:44.031Z,17.30
2023-01-18T09:58:32.285Z,16.57
2023-01-18T10:01:05.965Z,17.17
2023-01-18T10:03:43.604Z,17.50
2023-01-18T10:06:19.126Z,16.30
2023-01-18T10:08:53.792Z,16.37
2023-01-18T10:11:36.968Z,16.33
2023-01-18T10:14:17.756Z,16.57
2023-01-18T10:16:55.541Z,16.03
2023-01-18T10:19:29.331Z,16.53
2023-01-18T10:22:09.304Z,14.70
2023-01-18T10:24:46.948Z,16.00
2023-01-18T10:27:32.992Z,17.20
2023-01-18T10:30:37.993Z,14.80
2023-01-18T10:33:24.250Z,15.97
2023-01-18T10:35:56.676Z,15.40
2023-01-18T10:38:28.373Z,16.20
2023-01-18T10:40:58.944Z,15.37
2023-01-18T10:43:33.974Z,15.83
2023-01-18T10:46:19.833Z,14.80
2023-01-18T10:48:51.705Z,15.97
2023-01-18T10:51:35.011Z,15.30
2023-01-18T10:54:25.424Z,16.10
2023-01-18T10:57:09.142Z,14.27
2023-01-18T10:59:41.474Z,13.63
2023-01-18T11:02:29.423Z,14.10
2023-01-18T11:05:09.712Z,13.57
2023-01-18T11:07:42.641Z,14.00
2023-01-18T11:10:28.668Z,13.73
2023-01-18T11:13:03.432Z,14.50
2023-01-18T11:15:32.353Z,13.20
2023-01-18T11:18:14.519Z,12.90
2023-01-18T11:20:48.193Z,11.30
2023-01-18T11:23:26.495Z,11.60
2023-01-18T11:26:00.724Z,12.30
2023-01-18T11:28:37.446Z,13.90
2023-01-18T11:31:12.870Z,13.33
2023-01-18T11:33:55.240Z,13.90
2023-01-18T11:36:36.148Z,13.53
2023-01-18T11:39:27.924Z,11.97
2023-01-18T11:42:30.532Z,11.90
2023-01-18T11:45:13.180Z,11.20
2023-01-18T11:47:56.482Z,11.90
2023-01-18T11:50:36.845Z,11.73
2023-01-18T11:53:17.765Z,10.67
2023-01-18T11:55:57.938Z,10.93
2023-01-18T11:58:30.167Z,11.57
2023-01-18T12:01:17.073Z,11.37
2023-01-18T12:03:53.069Z,11.93
2023-01-18T12:06:42.311Z,12.13
2023-01-18T12:09:38.703Z,11.47
2023-01-18T12:12:26.399Z,11.80
2023-01-18T12:15:10.933Z,11.30
2023-01-18T12:18:07.794Z,11.23
2023-01-18T12:20:58.243Z,11.23
2023-01-18T12:23:55.686Z,11.40
2023-01-18T12:26:42.648Z,11.27
2023-01-18T12:29:50.420Z,11.30
2023-01-18T12:32:45.272Z,11.37
2023-01-18T12:35:41.226Z,11.97
2023-01-18T12:38:21.012Z,10.63
2023-01-18T12:41:26.826Z,11.47
2023-01-18T12:44:19.946Z,11.10
2023-01-18T12:47:07.309Z,9.93
2023-01-18T12:49:40.140Z,10.83
2023-01-18T12:52:22.227Z,10.07
2023-01-18T12:54:59.224Z,10.50
2023-01-18T12:57:30.682Z,9.60
2023-01-18T13:00:08.547Z,10.43
2023-01-18T13:02:45.489Z,10.13
2023-01-18T13:05:21.666Z,10.00
2023-01-18T13:07:53.195Z,11.20
2023-01-18T13:10:28.728Z,10.47
2023-01-18T13:13:01.042Z,8.97
2023-01-18T13:15:39.479Z,10.70
2023-01-18T13:18:17.791Z,9.83
2023-01-18T13:20:58.919Z,9.23
2023-01-18T13:23:36.715Z,10.47
2023-01-18T13:26:20.005Z,9.10
2023-01-18T13:29:06.569Z,10.63
2023-01-18T13:31:35.082Z,9.93
2023-01-18T13:34:08.006Z,10.10
2023-01-18T13:36:46.599Z,10.77
2023-01-18T13:39:19.683Z,9.57
2023-01-18T13:42:35.896Z,11.00
2023-01-18T13:45:21.722Z,9.83
2023-01-18T13:47:54.393Z,9.37
2023-01-18T13:50:45.972Z,9.10
2023-01-18T13:53:31.462Z,9.20
2023-01-18T13:56:37.595Z,9.90
2023-01-18T13:59:17.470Z,9.50
2023-01-18T14:01:50.554Z,9.37
2023-01-18T14:04:31.755Z,9.77
2023-01-18T14:07:07.928Z,9.40
2023-01-18T14:09:39.160Z,9.60
2023-01-18T14:12:10.932Z,9.17
2023-01-18T14:14:56.501Z,9.37
2023-01-18T14:17:26.594Z,9.10
2023-01-18T14:20:30.035Z,9.23
2023-01-18T14:23:13.701Z,9.30
2023-01-18T14:26:01.289Z,9.00
2023-01-18T14:28:36.566Z,9.10
2023-01-18T14:31:27.861Z,9.50
2023-01-18T14:34:02.457Z,8.83
2023-01-18T14:36:36.681Z,9.47
2023-01-18T14:39:09.625Z,9.50
2023-01-18T14:41:47.725Z,9.50
2023-01-18T14:44:19.982Z,9.97
2023-01-18T14:46:51.116Z,9.07
2023-01-18T14:49:29.758Z,9.57
2023-01-18T14:52:00.896Z,10.17
2023-01-18T14:54:30.883Z,8.90
2023-01-18T14:57:08.760Z,9.70
2023-01-18T14:59:36.962Z,8.70
2023-01-18T15:02:18.998Z,9.40
2023-01-18T15:04:57.242Z,10.00
2023-01-18T15:07:28.858Z,9.43
2023-01-18T15:10:07.585Z,8.93
2023-01-18T15:12:43.699Z,9.77
2023-01-18T15:15:25.411Z,10.40
2023-01-18T15:17:58.771Z,10.00
2023-01-18T15:20:32.215Z,9.50
2023-01-18T15:23:08.180Z,10.23
2023-01-18T15:25:36.297Z,9.67
2023-01-18T15:28:22.800Z,10.07
2023-01-18T15:30:52.741Z,10.07
2023-01-18T15:33:24.656Z,9.60
2023-01-18T15:35:58.921Z,9.60
2023-01-18T15:38:33.099Z,10.17
2023-01-18T15:41:20.045Z,9.30
2023-01-18T15:43:48.837Z,10.10
2023-01-18T15:46:20.204Z,9.60
2023-01-18T15:48:54.194Z,10.30
2023-01-18T15:51:43.498Z,9.60
2023-01-18T15:54:24.724Z,9.27
2023-01-18T15:56:56.864Z,10.00
2023-01-18T15:59:27.980Z,10.00
2023-01-18T16:02:17.348Z,9.80
2023-01-18T16:04:47.671Z,9.40
2023-01-18T16:07:43.263Z,9.63
2023-01-18T16:10:28.332Z,9.90
2023-01-18T16:13:02.015Z,10.33
2023-01-18T16:15:36.288Z,10.40
2023-01-18T16:18:07.915Z,11.10
2023-01-18T16:20:46.071Z,12.40
2023-01-18T16:23:21.368Z,11.63
2023-01-18T16:25:56.673Z,11.70
2023-01-18T16:28:32.453Z,10.73
2023-01-18T16:31:10.591Z,11.53
2023-01-18T16:33:40.585Z,10.60
2023-01-18T16:36:19.489Z,11.57
2023-01-18T16:38:48.719Z,12.27
2023-01-18T16:41:21.285Z,11.40
2023-01-18T16:43:55.845Z,11.77
2023-01-18T16:46:27.349Z,11.53
2023-01-18T16:48:59.002Z,12.53
2023-01-18T16:51:36.060Z,11.30
2023-01-18T16:54:13.778Z,12.40
2023-01-18T16:56:52.332Z,12.70
2023-01-18T16:59:22.595Z,11.63
2023-01-18T17:01:54.348Z,11.60
2023-01-18T17:04:27.263Z,12.50
2023-01-18T17:06:58.429Z,13.17
2023-01-18T17:09:32.471Z,11.43
2023-01-18T17:12:08.885Z,11.07
2023-01-18T17:14:40.412Z,11.27
2023-01-18T17:17:19.292Z,11.43
2023-01-18T17:19:51.464Z,11.80
2023-01-18T17:22:21.318Z,11.00
2023-01-18T17:24:55.317Z,11.70
2023-01-18T17:27:24.382Z,11.27
2023-01-18T17:29:52.227Z,10.87
2023-01-18T17:32:22.518Z,12.00
2023-01-18T17:34:55.098Z,11.53
2023-01-18T17:37:25.515Z,10.70
2023-01-18T17:40:12.023Z,11.87
2023-01-18T17:42:41.918Z,11.00
2023-01-18T17:45:16.403Z,11.07
2023-01-18T17:47:49.719Z,11.30
2023-01-18T17:50:25.332Z,11.10
2023-01-18T17:52:56.435Z,12.13
2023-01-18T17:55:34.598Z,11.93
2023-01-18T17:58:06.203Z,13.10
2023-01-18T18:00:34.135Z,12.50
2023-01-18T18:03:07.722Z,11.50
2023-01-18T18:05:43.343Z,11.87
2023-01-18T18:08:12.914Z,12.67
2023-01-18T18:10:44.583Z,11.97
2023-01-18T18:13:14.610Z,12.33
2023-01-18T18:15:48.540Z,11.87
2023-01-18T18:18:22.909Z,12.80
2023-01-18T18:20:52.963Z,12.80
2023-01-18T18:23:24.053Z,12.90
2023-01-18T18:25:57.077Z,12.43
2023-01-18T18:28:29.572Z,12.97
2023-01-18T18:31:00.220Z,11.40
2023-01-18T18:33:33.370Z,11.87
2023-01-18T18:36:04.401Z,12.40
2023-01-18T18:38:41.211Z,12.30
2023-01-18T18:41:15.345Z,12.27
2023-01-18T18:43:45.465Z,12.53
2023-01-18T18:46:16.958Z,12.90
2023-01-18T18:48:48.126Z,12.83
2023-01-18T18:51:26.076Z,14.77
2023-01-18T18:53:58.870Z,12.97
2023-01-18T18:56:28.379Z,12.73
2023-01-18T18:59:03.287Z,13.70
2023-01-18T19:01:35.829Z,12.40
2023-01-18T19:04:05.200Z,11.50
2023-01-18T19:06:39.147Z,12.60
2023-01-18T19:09:08.818Z,12.30
2023-01-18T19:11:50.713Z,13.57
2023-01-18T19:14:25.683Z,13.40
2023-01-18T19:16:53.623Z,13.90
2023-01-18T19:19:29.700Z,14.10
2023-01-18T19:21:59.737Z,12.10
2023-01-18T19:24:36.776Z,13.33
2023-01-18T19:27:10.118Z,13.53
2023-01-18T19:29:43.914Z,14.33
2023-01-18T19:32:15.436Z,13.60
2023-01-18T19:34:46.221Z,14.10
2023-01-18T19:37:17.015Z,13.77
2023-01-18T19:39:50.626Z,13.77
2023-01-18T19:42:19.891Z,13.77
2023-01-18T19:44:48.116Z,13.73
2023-01-18T19:47:22.332Z,14.67
2023-01-18T19:49:54.850Z,13.83
2023-01-18T19:52:29.913Z,13.97
2023-01-18T19:55:01.511Z,12.20
2023-01-18T19:57:31.273Z,12.87
2023-01-18T20:00:04.128Z,14.30
2023-01-18T20:02:37.989Z,13.63
2023-01-18T20:05:12.672Z,13.90
2023-01-18T20:07:42.617Z,13.73
2023-01-18T20:10:16.639Z,12.80
2023-01-18T20:12:51.642Z,14.00
2023-01-18T20:15:23.048Z,13.40
2023-01-18T20:17:53.719Z,13.40
2023-01-18T20:20:32.894Z,13.03
2023-01-18T20:23:04.518Z,14.70
2023-01-18T20:25:43.987Z,14.33
2023-01-18T20:28:18.754Z,12.77
2023-01-18T20:30:54.028Z,13.90
2023-01-18T20:33:24.190Z,13.40
2023-01-18T20:35:57.827Z,13.10
2023-01-18T20:38:29.335Z,14.37
2023-01-18T20:40:59.421Z,14.70
2023-01-18T20:43:34.081Z,13.73
2023-01-18T20:46:04.979Z,12.90
2023-01-18T20:48:37.391Z,13.20
2023-01-18T20:51:09.346Z,13.23
2023-01-18T20:53:38.953Z,13.37
2023-01-18T20:56:28.414Z,14.47
2023-01-18T20:59:05.784Z,14.10
2023-01-18T21:01:37.604Z,13.60
2023-01-18T21:04:11.203Z,14.43
2023-01-18T21:06:39.075Z,13.67
2023-01-18T21:09:09.427Z,14.43
2023-01-18T21:11:44.969Z,13.00
2023-01-18T21:14:16.274Z,13.67
2023-01-18T21:16:50.015Z,13.77
2023-01-18T21:19:25.662Z,13.40
2023-01-18T21:22:06.246Z,13.27
2023-01-18T21:24:34.249Z,13.10
2023-01-18T21:27:06.247Z,12.77
2023-01-18T21:29:39.745Z,12.87
2023-01-18T21:32:14.458Z,13.83
2023-01-18T21:34:51.277Z,13.00
2023-01-18T21:37:22.408Z,12.80
2023-01-18T21:39:53.555Z,13.20
2023-01-18T21:42:38.942Z,13.10
2023-01-18T21:45:28.342Z,13.07
2023-01-18T21:47:59.478Z,13.60
2023-01-18T21:50:45.364Z,13.47
2023-01-18T21:53:32.726Z,12.40
2023-01-18T21:56:06.876Z,12.90
2023-01-18T21:58:53.698Z,12.03
2023-01-18T22:01:33.918Z,12.90
2023-01-18T22:04:22.399Z,11.77
2023-01-18T22:06:54.240Z,12.73
2023-01-18T22:09:24.285Z,11.97
2023-01-18T22:11:53.272Z,12.07
2023-01-18T22:14:24.595Z,13.53
2023-01-18T22:17:01.542Z,12.40
2023-01-18T22:19:29.436Z,12.97
2023-01-18T22:21:59.098Z,12.80
2023-01-18T22:24:26.992Z,11.97
2023-01-18T22:27:02.163Z,12.73
2023-01-18T22:29:30.009Z,11.97
2023-01-18T22:32:06.337Z,12.40
2023-01-18T22:34:36.226Z,12.90
2023-01-18T22:37:06.500Z,12.20
2023-01-18T22:39:34.415Z,13.17
2023-01-18T22:42:04.867Z,12.20
2023-01-18T22:44:36.668Z,12.67
2023-01-18T22:47:13.113Z,13.77
2023-01-18T22:49:44.046Z,12.97
2023-01-18T22:52:16.887Z,13.30
2023-01-18T22:54:50.509Z,12.37
2023-01-18T22:57:19.951Z,14.17
2023-01-18T22:59:53.241Z,12.10
2023-01-18T23:02:26.383Z,13.47
2023-01-18T23:04:56.398Z,13.70
2023-01-18T23:07:28.610Z,13.20
2023-01-18T23:10:07.859Z,13.60
2023-01-18T23:12:39.914Z,13.80
2023-01-18T23:15:30.296Z,12.60
2023-01-18T23:17:59.939Z,13.50
2023-01-18T23:20:27.960Z,14.03
2023-01-18T23:23:12.659Z,12.80
2023-01-18T23:25:42.561Z,14.57
2023-01-18T23:28:36.255Z,14.10
2023-01-18T23:31:05.432Z,13.80
2023-01-18T23:33:37.515Z,13.93
2023-01-18T23:36:13.569Z,13.53
2023-01-18T23:38:59.214Z,13.50
2023-01-18T23:41:50.353Z,14.30
2023-01-18T23:44:35.752Z,13.47
2023-01-18T23:47:23.317Z,13.20
2023-01-18T23:50:13.710Z,14.13
2023-01-18T23:53:00.999Z,14.20
2023-01-18T23:55:28.915Z,13.63
2023-01-18T23:57:56.840Z,13.00
